Time;durP1;ratioP1;P1;durP2;ratioP2;P2;SDS_P1;SDS_P2;PMS_P1;PMS_P2;Temp;Humidity;BMP_temperature;BMP_pressure;BME280_temperature;BME280_humidity;BME280_pressure;Samples;Min_cycle;Max_cycle;Signal;HPM_P1;HPM_P2
2022/12/04 00:01:56;;;;;;;87.73;45.70;;;2.60;99.90;;;2.73;80.55;101711.25;5113202;28;20546;-67
2022/12/04 00:04:24;;;;;;;93.57;45.23;;;2.80;99.90;;;2.85;80.33;101703.00;5113507;28;20466;-74
2022/12/04 00:06:55;;;;;;;92.37;45.33;;;2.90;99.90;;;2.94;80.34;101719.06;5113221;28;20040;-72
2022/12/04 00:09:26;;;;;;;90.57;45.80;;;2.90;99.90;;;3.00;79.99;101703.63;5113253;28;20051;-72
2022/12/04 00:11:56;;;;;;;89.40;45.63;;;3.00;99.90;;;2.90;80.15;101711.94;5113470;28;20047;-72
2022/12/04 00:14:24;;;;;;;87.50;43.45;;;2.90;99.90;;;3.08;79.86;101707.44;5113151;28;20050;-72
2022/12/04 00:16:53;;;;;;;91.00;45.13;;;3.00;99.90;;;3.00;79.64;101709.72;5113400;28;20034;-72
2022/12/04 00:19:21;;;;;;;91.33;45.93;;;3.10;99.90;;;2.91;79.88;101708.47;5113013;28;20050;-72
2022/12/04 00:21:50;;;;;;;94.93;46.07;;;3.00;99.90;;;3.03;79.91;101706.34;5095176;28;20040;-72
2022/12/04 00:24:18;;;;;;;89.17;45.47;;;3.10;99.90;;;3.18;79.69;101709.56;5113018;28;20051;-72
2022/12/04 00:26:46;;;;;;;89.53;45.70;;;3.20;99.90;;;3.09;79.40;101709.22;5114009;28;20040;-72
2022/12/04 00:29:16;;;;;;;89.27;46.50;;;3.20;99.90;;;2.81;79.66;101685.47;5117373;28;20048;-72
2022/12/04 00:31:45;;;;;;;86.22;43.17;;;3.00;99.90;;;3.19;79.40;101707.03;5117440;28;20039;-72
2022/12/04 00:34:13;;;;;;;88.90;45.73;;;3.20;99.90;;;3.11;79.98;101707.56;5116768;28;20040;-73
2022/12/04 00:36:42;;;;;;;86.33;44.80;;;3.10;99.90;;;3.23;79.76;101703.66;5116658;28;20044;-73
2022/12/04 00:39:10;;;;;;;79.83;41.97;;;3.20;99.90;;;3.12;79.82;101704.09;5117062;28;20043;-73
2022/12/04 00:41:38;;;;;;;86.40;43.73;;;3.10;99.90;;;3.25;79.45;101698.53;5116913;28;20118;-73
2022/12/04 00:44:06;;;;;;;87.97;46.37;;;3.20;99.90;;;3.42;79.31;101705.28;5098630;28;20093;-72
2022/12/04 00:46:36;;;;;;;93.03;44.73;;;3.30;99.90;;;3.43;78.73;101701.81;5116553;28;20504;-72
2022/12/04 00:49:04;;;;;;;84.43;43.03;;;3.50;99.90;;;3.20;78.77;101707.91;5116487;28;20055;-73
2022/12/04 00:51:33;;;;;;;87.77;43.87;;;3.30;99.90;;;3.40;78.84;101699.09;5116417;28;20287;-73
2022/12/04 00:54:01;;;;;;;84.13;42.60;;;3.40;99.90;;;3.40;78.67;101699.09;5116377;28;20039;-72
2022/12/04 00:56:29;;;;;;;85.00;44.43;;;3.40;99.90;;;3.33;78.96;101702.31;5116299;28;20105;-72
2022/12/04 00:59:00;;;;;;;84.50;44.10;;;3.40;99.90;;;3.32;78.54;101700.53;5116239;28;20040;-73
2022/12/04 01:01:29;;;;;;;84.50;42.87;;;3.30;99.90;;;2.95;79.76;101707.78;5116311;28;20043;-72
2022/12/04 01:03:59;;;;;;;91.93;45.50;;;3.00;99.90;;;3.07;79.67;101700.41;5116218;28;20047;-72
2022/12/04 01:06:31;;;;;;;90.22;45.80;;;3.10;99.90;;;3.04;79.44;101703.78;5116194;28;20044;-72
2022/12/04 01:09:03;;;;;;;85.67;44.03;;;3.00;99.90;;;3.12;79.33;101693.63;5116433;28;20130;-73
2022/12/04 01:11:32;;;;;;;90.87;43.63;;;3.00;99.90;;;3.04;79.35;101701.19;5116393;28;20459;-72
2022/12/04 01:14:01;;;;;;;88.53;45.40;;;3.00;99.90;;;3.19;79.20;101703.53;5116043;28;20035;-72
2022/12/04 01:16:32;;;;;;;85.63;45.23;;;3.10;99.90;;;3.30;78.87;101700.47;5116207;28;20126;-72
2022/12/04 01:19:03;;;;;;;90.03;46.73;;;3.30;99.90;;;3.12;78.48;101698.88;5116170;28;20048;-72
2022/12/04 01:21:32;;;;;;;90.10;45.40;;;3.30;99.90;;;3.16;78.90;101706.00;5115908;28;20067;-71
2022/12/04 01:24:00;;;;;;;83.60;42.87;;;3.20;99.90;;;3.28;78.52;101702.16;5115784;28;20392;-72
2022/12/04 01:26:29;;;;;;;92.00;45.50;;;3.20;99.90;;;3.13;78.34;101714.63;5115765;28;20036;-72
2022/12/04 01:28:57;;;;;;;88.23;45.37;;;3.20;99.90;;;3.11;78.82;101710.16;5116569;28;20104;-72
2022/12/04 01:31:26;;;;;;;85.87;45.13;;;3.10;99.90;;;3.29;78.85;101705.66;5115985;28;20050;-72
2022/12/04 01:33:54;;;;;;;89.90;46.50;;;3.20;99.90;;;3.02;78.68;101701.97;5115898;28;20073;-72
2022/12/04 01:36:27;;;;;;;84.57;44.00;;;3.10;99.90;;;3.22;79.00;101698.38;5115605;28;20134;-72
2022/12/04 01:38:56;;;;;;;93.10;44.03;;;3.20;99.90;;;3.12;78.66;101693.63;5115879;28;20050;-73
2022/12/04 01:41:29;;;;;;;96.53;46.93;;;3.20;99.90;;;3.19;78.39;101703.53;5115473;28;20097;-71
2022/12/04 01:44:10;;;;;;;90.07;45.07;;;3.20;99.90;;;3.17;78.05;101697.34;5115777;28;20040;-71
2022/12/04 01:46:39;;;;;;;91.67;46.03;;;3.20;99.90;;;3.19;78.28;101700.91;5115724;28;20036;-72
2022/12/04 01:49:10;;;;;;;88.47;46.40;;;3.20;99.90;;;3.26;78.03;101688.13;5115373;28;20047;-72
2022/12/04 01:51:44;;;;;;;87.47;43.67;;;3.20;99.90;;;3.32;77.78;101688.34;5115626;28;20123;-71
2022/12/04 01:54:18;;;;;;;90.80;44.63;;;3.30;99.90;;;3.09;78.26;101697.03;5115315;28;20480;-72
2022/12/04 01:56:50;;;;;;;91.43;45.77;;;3.20;99.90;;;2.54;79.75;101690.44;5115269;28;20043;-72
2022/12/04 01:59:26;;;;;;;95.67;46.60;;;2.70;99.90;;;2.79;79.49;101689.72;5115592;28;20035;-72
2022/12/04 02:02:01;;;;;;;95.23;46.77;;;2.80;99.90;;;2.83;79.80;101689.03;5115462;28;20040;-72
2022/12/04 02:04:30;;;;;;;95.93;47.53;;;2.80;99.90;;;2.91;79.83;101690.19;5115213;28;20408;-72
2022/12/04 02:07:00;;;;;;;94.60;46.57;;;2.90;99.90;;;2.97;79.72;101686.13;5115021;28;20381;-72
2022/12/04 02:09:30;;;;;;;99.35;46.90;;;2.90;99.90;;;2.87;79.64;101696.13;5114929;28;20056;-72
2022/12/04 02:12:08;;;;;;;99.45;47.55;;;2.90;99.90;;;2.71;79.94;101695.53;5115560;28;20044;-74
2022/12/04 02:14:49;;;;;;;100.37;46.80;;;2.80;99.90;;;2.75;80.53;101683.47;5115144;28;20050;-73
2022/12/04 02:17:27;;;;;;;97.03;47.13;;;2.80;99.90;;;2.88;80.44;101684.88;5114771;28;20039;-72
2022/12/04 02:20:09;;;;;;;94.53;46.03;;;2.90;99.90;;;3.05;79.92;101702.97;5114755;28;20045;-72
2022/12/04 02:22:55;;;;;;;91.30;44.83;;;3.00;99.90;;;2.99;79.84;101689.69;5114580;28;20408;-72
2022/12/04 02:25:32;;;;;;;98.90;47.50;;;3.00;99.90;;;2.86;79.74;101699.59;5114838;28;20055;-72
2022/12/04 02:28:09;;;;;;;103.30;50.67;;;2.90;99.90;;;2.98;79.86;101700.06;5114637;28;20043;-72
2022/12/04 02:30:41;;;;;;;98.17;49.57;;;3.00;99.90;;;2.92;79.60;101686.78;5114574;28;20059;-72
2022/12/04 02:33:18;;;;;;;100.57;47.83;;;3.00;99.90;;;2.89;79.97;101697.06;5115093;28;20039;-72
2022/12/04 02:35:51;;;;;;;99.60;49.57;;;2.90;99.90;;;2.82;80.52;101682.91;5114464;28;20548;-72
2022/12/04 02:38:26;;;;;;;101.80;48.97;;;2.80;99.90;;;2.99;80.13;101680.94;5114283;28;20047;-72
2022/12/04 02:41:00;;;;;;;95.17;47.50;;;2.90;99.90;;;3.00;79.81;101672.28;5114329;28;20070;-72
2022/12/04 02:43:35;;;;;;;101.77;49.53;;;3.00;99.90;;;3.12;79.67;101668.41;5114614;28;20236;-72
2022/12/04 02:46:10;;;;;;;107.50;51.13;;;3.10;99.90;;;2.96;79.75;101654.72;5114276;28;20048;-72
2022/12/04 02:48:43;;;;;;;102.90;50.77;;;3.00;99.90;;;3.12;79.71;101657.06;5114713;28;20048;-72
2022/12/04 02:51:16;;;;;;;93.73;45.90;;;3.10;99.90;;;2.88;79.18;101598.66;5113806;28;20123;-72
2022/12/04 02:53:50;;;;;;;96.63;47.73;;;3.20;99.90;;;3.07;79.20;101667.34;5096198;28;20111;-72
2022/12/04 02:56:24;;;;;;;100.67;49.43;;;3.10;99.90;;;3.09;79.01;101652.63;5114316;28;20052;-71
2022/12/04 02:59:00;;;;;;;104.93;50.43;;;3.10;99.90;;;3.02;79.63;101647.97;5114078;28;20126;-72
2022/12/04 03:01:33;;;;;;;101.53;50.60;;;3.00;99.90;;;3.14;79.61;101655.38;5114215;28;20122;-72
2022/12/04 03:04:08;;;;;;;101.73;51.73;;;3.10;99.90;;;3.20;79.44;101666.06;5113958;28;20162;-72
2022/12/04 03:06:40;;;;;;;102.70;49.43;;;3.20;99.90;;;3.18;79.29;101663.41;5113934;28;20079;-73
2022/12/04 03:09:13;;;;;;;100.83;49.53;;;3.20;99.90;;;3.21;79.11;101662.66;5114195;28;20561;-72
2022/12/04 03:11:46;;;;;;;105.20;50.40;;;3.20;99.90;;;3.16;79.15;101653.72;5114462;28;20089;-72
2022/12/04 03:14:21;;;;;;;102.07;48.97;;;3.20;99.90;;;3.21;79.06;101654.81;5114124;28;20396;-71
2022/12/04 03:16:53;;;;;;;95.97;48.30;;;3.20;99.90;;;3.32;78.93;101651.75;5114367;28;20046;-72
2022/12/04 03:19:27;;;;;;;100.27;50.70;;;3.30;99.90;;;3.33;78.83;101668.34;5114054;28;20043;-72
2022/12/04 03:22:00;;;;;;;96.90;49.17;;;3.30;99.90;;;2.77;78.37;101558.19;5113997;28;20051;-71
2022/12/04 03:24:33;;;;;;;103.43;51.33;;;3.40;99.90;;;3.34;78.62;101663.16;5113586;28;20052;-72
2022/12/04 03:27:12;;;;;;;98.37;49.30;;;3.40;99.90;;;3.02;79.21;101655.81;5113875;28;20051;-72
2022/12/04 03:29:46;;;;;;;103.13;50.53;;;3.20;99.90;;;3.21;79.17;101660.94;5113889;28;20477;-72
2022/12/04 03:32:25;;;;;;;95.93;49.77;;;3.20;99.90;;;3.32;79.13;101661.31;5113582;28;20063;-71
2022/12/04 03:34:59;;;;;;;103.63;52.23;;;3.30;99.90;;;3.28;78.85;101664.66;5113545;28;20504;-73
2022/12/04 03:37:35;;;;;;;102.50;51.07;;;3.30;99.90;;;3.22;79.17;101661.81;5113550;28;20050;-72
2022/12/04 03:40:12;;;;;;;99.80;51.40;;;3.30;99.90;;;3.37;79.09;101658.03;5113717;28;20585;-72
2022/12/04 03:42:46;;;;;;;106.93;50.17;;;3.30;99.90;;;3.14;79.05;101652.78;5114089;28;20052;-72
2022/12/04 03:45:22;;;;;;;107.40;51.80;;;3.20;99.90;;;2.97;79.22;101653.84;5113515;28;20039;-72
2022/12/04 03:47:58;;;;;;;102.47;51.90;;;3.10;99.90;;;2.95;80.06;101645.06;5113752;28;20485;-72
2022/12/04 03:50:35;;;;;;;101.90;51.90;;;3.10;99.90;;;3.05;79.50;101645.50;5113752;28;20047;-71
2022/12/04 03:53:09;;;;;;;101.20;49.63;;;3.10;99.90;;;3.15;79.94;101649.34;5113386;28;20496;-72
2022/12/04 03:55:45;;;;;;;104.00;52.07;;;3.10;99.90;;;3.20;79.58;101642.56;5113698;28;20104;-72
2022/12/04 03:58:20;;;;;;;104.57;51.27;;;3.20;99.90;;;3.02;79.65;101636.66;5113650;28;20052;-72
2022/12/04 04:00:52;;;;;;;105.23;51.00;;;3.10;99.90;;;3.00;79.76;101630.47;5113292;28;20048;-72
2022/12/04 04:03:25;;;;;;;104.47;52.33;;;3.10;99.90;;;3.10;79.90;101635.19;5117590;28;20036;-72
2022/12/04 04:05:58;;;;;;;101.30;51.37;;;3.10;99.90;;;3.14;80.09;101639.72;5117423;28;20067;-72
2022/12/04 04:08:34;;;;;;;101.77;49.23;;;3.10;99.90;;;3.25;80.07;101633.19;5117355;28;20416;-72
2022/12/04 04:11:12;;;;;;;100.20;50.23;;;3.20;99.90;;;3.28;79.74;101628.06;5117311;28;20054;-72
2022/12/04 04:25:03;;;;;;;101.30;50.17;;;3.50;99.90;;;3.49;78.92;101634.97;5117002;28;20047;-72
2022/12/04 04:27:31;;;;;;;100.77;50.90;;;3.50;99.90;;;3.56;78.60;101643.94;5117269;28;20035;-72
2022/12/04 04:30:00;;;;;;;101.20;48.80;;;3.50;99.90;;;3.20;78.58;101640.84;5116910;28;20043;-72
2022/12/04 04:32:37;;;;;;;99.80;51.03;;;3.40;99.90;;;3.28;79.47;101647.25;5116839;28;20048;-73
2022/12/04 04:35:17;;;;;;;102.23;49.70;;;3.30;99.90;;;3.41;79.11;101648.56;5116851;28;20130;-72
2022/12/04 04:37:56;;;;;;;104.20;50.63;;;3.40;99.90;;;3.47;78.97;101644.47;5117399;28;20050;-72
2022/12/04 04:40:31;;;;;;;102.80;51.47;;;3.40;99.90;;;3.25;79.39;101648.88;5116934;28;20051;-71
2022/12/04 04:43:07;;;;;;;104.57;52.97;;;3.30;99.90;;;3.19;79.40;101643.41;5116946;28;20398;-72
2022/12/04 04:45:41;;;;;;;104.13;51.87;;;3.20;99.90;;;3.10;79.88;101646.53;5116915;28;20544;-72
2022/12/04 04:48:15;;;;;;;103.17;50.00;;;3.10;99.90;;;3.19;79.67;101632.94;5116615;28;20409;-72
2022/12/04 04:50:44;;;;;;;105.13;52.67;;;3.20;99.90;;;3.36;79.43;101648.44;5116499;28;20058;-71
2022/12/04 04:53:19;;;;;;;110.90;54.67;;;3.30;99.90;;;3.31;79.32;101642.13;5116441;28;20471;-72
2022/12/04 04:55:48;;;;;;;104.53;52.27;;;3.30;99.90;;;3.35;79.58;101654.47;5116701;28;20420;-72
2022/12/04 04:58:20;;;;;;;104.60;52.00;;;3.40;99.90;;;3.25;79.39;101654.09;5116357;28;20441;-73
2022/12/04 05:01:00;;;;;;;104.20;51.80;;;3.30;99.90;;;3.20;79.51;101650.41;5116560;28;20142;-73
2022/12/04 05:03:30;;;;;;;105.50;50.00;;;3.30;99.90;;;3.22;79.19;101657.47;5116582;28;20450;-72
2022/12/04 05:05:59;;;;;;;;;;;3.30;99.90;;;3.33;79.90;101653.53;5116893;28;20401;-72
2022/12/04 05:08:27;;;;;;;103.20;52.37;;;3.30;99.90;;;3.31;79.63;101655.19;5098213;28;19919;-73
2022/12/04 05:10:55;;;;;;;105.43;52.70;;;3.30;99.90;;;3.23;79.35;101661.84;5116304;28;20053;-72
2022/12/04 05:13:24;;;;;;;102.97;52.17;;;3.30;99.90;;;3.06;79.40;101659.47;5115448;28;20492;-72
2022/12/04 05:15:59;;;;;;;98.90;50.27;;;3.20;99.90;;;3.24;79.73;101652.28;5116007;28;20509;-72
2022/12/04 05:18:29;;;;;;;96.03;50.17;;;3.20;99.90;;;3.33;79.65;101653.53;5116030;28;20036;-72
2022/12/04 05:20:57;;;;;;;100.07;49.92;;;3.30;99.90;;;3.19;79.47;101657.38;5116672;28;20050;-72
2022/12/04 05:23:25;;;;;;;103.43;53.03;;;3.30;99.90;;;3.13;80.46;101659.75;5115849;28;20104;-72
2022/12/04 05:26:00;;;;;;;105.27;52.97;;;3.10;99.90;;;3.24;80.30;101657.53;5116026;28;20052;-72
2022/12/04 05:28:28;;;;;;;107.13;52.90;;;3.20;99.90;;;3.34;79.83;101657.03;5115905;28;20047;-72
2022/12/04 05:30:58;;;;;;;104.03;53.13;;;3.30;99.90;;;3.37;79.57;101664.97;5116012;28;20455;-72
2022/12/04 05:33:26;;;;;;;99.40;51.17;;;3.30;99.90;;;3.42;79.58;101669.56;5115758;28;20039;-72
2022/12/04 05:36:01;;;;;;;98.40;51.10;;;3.40;99.90;;;3.49;79.47;101663.72;5115933;28;20051;-72
2022/12/04 05:38:30;;;;;;;99.57;51.30;;;3.50;99.90;;;3.37;79.08;101618.81;5115885;28;20413;-71
2022/12/04 05:40:59;;;;;;;105.37;53.50;;;3.60;99.90;;;3.64;78.83;101660.75;5115736;28;20409;-73
2022/12/04 05:43:28;;;;;;;98.33;49.97;;;3.60;99.90;;;3.65;78.54;101652.09;5097143;28;20135;-72
2022/12/04 05:46:00;;;;;;;99.23;51.77;;;3.70;99.90;;;3.71;78.87;101665.41;5115447;28;20035;-72
2022/12/04 05:48:28;;;;;;;103.50;50.90;;;3.70;99.90;;;3.68;78.54;101662.66;5115463;28;20544;-72
2022/12/04 05:50:57;;;;;;;101.50;51.67;;;3.70;99.90;;;3.82;78.42;101657.91;5115391;28;20420;-72
2022/12/04 05:53:26;;;;;;;100.57;50.27;;;3.80;99.90;;;3.83;78.55;101657.09;5115325;28;20435;-73
2022/12/04 05:55:56;;;;;;;102.97;51.60;;;3.80;99.90;;;3.50;78.04;101670.72;5115574;28;20095;-72
2022/12/04 05:58:25;;;;;;;94.07;49.10;;;3.60;99.90;;;3.60;79.02;101670.22;5115171;28;20485;-72
2022/12/04 06:00:54;;;;;;;93.17;50.10;;;3.60;99.90;;;3.58;78.60;101669.28;5115603;28;20035;-73
2022/12/04 06:03:23;;;;;;;100.87;51.87;;;3.60;99.90;;;3.56;78.78;101663.09;5097082;28;20492;-72
2022/12/04 06:05:51;;;;;;;99.80;48.97;;;3.60;99.90;;;3.62;79.05;101658.09;5115014;28;20120;-72
2022/12/04 06:08:20;;;;;;;104.73;53.13;;;3.60;99.90;;;3.67;78.97;101663.50;5114978;28;20107;-73
2022/12/04 06:10:49;;;;;;;95.20;51.57;;;3.70;99.90;;;3.64;78.61;101668.59;5096969;28;20043;-72
2022/12/04 06:13:17;;;;;;;101.70;52.57;;;3.60;99.90;;;3.67;78.68;101666.13;5114978;28;20390;-72
2022/12/04 06:15:46;;;;;;;98.07;49.60;;;3.70;99.90;;;3.56;78.54;101655.25;5114833;28;20375;-72
2022/12/04 06:18:14;;;;;;;100.13;51.27;;;3.60;99.90;;;3.66;79.00;101669.56;5114795;28;20074;-72
2022/12/04 06:20:42;;;;;;;99.27;51.77;;;3.60;99.90;;;3.73;79.04;101676.81;5114762;28;20042;-73
2022/12/04 06:23:11;;;;;;;101.20;51.37;;;3.70;99.90;;;3.69;78.96;101661.84;5114618;28;20044;-72
2022/12/04 06:25:39;;;;;;;94.57;50.77;;;3.70;99.90;;;3.74;78.91;101656.75;5114111;28;20400;-72
2022/12/04 06:28:09;;;;;;;100.80;52.67;;;3.70;99.90;;;3.76;78.63;101650.72;5114927;28;20098;-73
2022/12/04 06:30:37;;;;;;;108.45;53.38;;;3.80;99.90;;;3.76;79.00;101652.44;5114566;28;20048;-72
2022/12/04 06:33:05;;;;;;;101.47;52.77;;;3.80;99.90;;;3.80;78.98;101657.84;5114470;28;20039;-72
2022/12/04 06:35:33;;;;;;;104.30;52.50;;;3.80;99.90;;;3.82;78.79;101653.56;5114458;28;20047;-72
2022/12/04 06:38:02;;;;;;;100.13;51.40;;;3.80;99.90;;;3.80;78.64;101647.41;5114382;28;20050;-72
2022/12/04 06:40:30;;;;;;;96.40;50.43;;;3.80;99.90;;;3.82;78.58;101657.91;5114679;28;20049;-72
2022/12/04 06:42:58;;;;;;;100.27;51.93;;;3.80;99.90;;;3.82;78.50;101661.41;5114751;28;20039;-72
2022/12/04 06:45:28;;;;;;;99.20;52.00;;;3.80;99.90;;;3.87;78.60;101664.22;5114831;28;20042;-72
2022/12/04 06:47:56;;;;;;;96.15;50.60;;;3.80;99.90;;;3.72;78.73;101659.31;5114801;28;20073;-72
2022/12/04 06:50:24;;;;;;;100.13;51.87;;;3.80;99.90;;;3.81;78.81;101651.81;5114158;28;20035;-73
2022/12/04 06:52:53;;;;;;;95.30;50.80;;;3.80;99.90;;;3.88;78.72;101655.50;5114125;28;20077;-73
2022/12/04 06:55:21;;;;;;;100.60;52.03;;;3.90;99.90;;;3.89;78.64;101654.69;5114109;28;20040;-72
2022/12/04 06:57:49;;;;;;;100.07;53.60;;;3.90;99.90;;;3.82;78.64;101650.97;5114374;28;20039;-72
2022/12/04 07:00:18;;;;;;;101.13;52.33;;;3.80;99.90;;;3.80;78.86;101642.16;5096033;28;20078;-73
2022/12/04 07:02:48;;;;;;;99.27;52.50;;;3.80;99.90;;;3.76;79.00;101649.84;5113924;28;20048;-71
2022/12/04 07:05:16;;;;;;;95.88;51.42;;;3.70;99.90;;;3.75;79.10;101662.06;5113904;28;20550;-72
2022/12/04 07:07:45;;;;;;;102.10;52.60;;;3.80;99.90;;;3.80;78.48;101660.47;5114133;28;20039;-73
2022/12/04 07:10:13;;;;;;;101.87;52.27;;;3.80;99.90;;;3.82;78.60;101655.28;5114058;28;20036;-72
2022/12/04 07:12:41;;;;;;;100.87;52.13;;;3.80;99.90;;;3.84;78.47;101662.38;5114059;28;20051;-72
2022/12/04 07:15:11;;;;;;;98.40;51.47;;;3.90;99.90;;;3.81;78.66;101658.75;5113782;28;20040;-72
2022/12/04 07:17:39;;;;;;;96.87;50.73;;;3.80;99.90;;;3.88;79.09;101656.41;5114005;28;20126;-72
2022/12/04 07:20:10;;;;;;;99.53;51.17;;;3.90;99.90;;;3.79;78.85;101650.88;5114255;28;20043;-72
2022/12/04 07:22:39;;;;;;;97.70;50.87;;;3.90;99.90;;;3.92;78.39;101663.53;5113695;28;20039;-71
2022/12/04 07:25:08;;;;;;;100.93;52.40;;;3.90;99.90;;;3.88;78.82;101650.28;5095606;28;20054;-72
2022/12/04 07:27:36;;;;;;;94.90;50.87;;;3.90;99.90;;;3.90;78.96;101659.97;5095719;28;20047;-72
2022/12/04 07:30:05;;;;;;;98.90;51.57;;;3.90;99.90;;;3.91;78.73;101658.25;5113583;28;20036;-71
2022/12/04 07:32:41;;;;;;;95.13;50.83;;;3.90;99.90;;;3.88;78.60;101661.63;5113793;28;20047;-72
2022/12/04 07:35:11;;;;;;;95.53;51.10;;;3.90;99.90;;;3.88;78.39;101661.63;5113462;28;20044;-72
2022/12/04 07:37:39;;;;;;;97.78;51.28;;;3.90;99.90;;;3.90;78.66;101659.06;5113555;28;20044;-73
2022/12/04 07:40:08;;;;;;;98.73;53.47;;;3.90;99.90;;;3.91;78.95;101663.50;5113454;28;20069;-72
2022/12/04 07:42:37;;;;;;;103.60;54.23;;;3.90;99.90;;;3.82;78.77;101666.66;5113324;28;20075;-72
2022/12/04 07:45:06;;;;;;;97.17;51.23;;;3.90;99.90;;;3.83;79.05;101663.22;5113423;28;20123;-73
2022/12/04 07:47:36;;;;;;;102.35;52.47;;;3.80;99.90;;;3.60;78.98;101672.84;5113371;28;20556;-72
2022/12/04 07:50:06;;;;;;;105.75;53.65;;;3.70;99.90;;;3.23;80.90;101672.31;5095635;28;20073;-73
2022/12/04 07:52:37;;;;;;;105.25;54.78;;;3.30;99.90;;;3.46;80.73;101676.69;5095172;28;20575;-74
2022/12/04 07:55:08;;;;;;;101.27;52.43;;;3.40;99.90;;;3.49;80.74;101678.50;5113331;28;20477;-73
2022/12/04 07:57:36;;;;;;;108.53;54.58;;;3.50;99.90;;;3.58;80.55;101666.66;5113946;28;20135;-72
2022/12/04 08:00:06;;;;;;;103.00;52.33;;;3.50;99.90;;;3.53;80.18;101678.69;5113303;28;20038;-75
2022/12/04 08:02:38;;;;;;;101.70;52.27;;;3.50;99.90;;;3.61;80.16;101671.13;5113190;28;20153;-75
2022/12/04 08:05:07;;;;;;;107.80;53.27;;;3.60;99.90;;;3.12;80.67;101673.63;5095179;28;20503;-79
2022/12/04 08:07:37;;;;;;;109.27;53.53;;;3.30;99.90;;;2.53;81.68;101558.13;5113221;28;20112;-80
2022/12/04 08:10:07;;;;;;;99.45;50.72;;;3.20;99.90;;;3.02;81.66;101686.31;5113297;28;20035;-80
2022/12/04 08:12:35;;;;;;;102.85;52.95;;;3.10;99.90;;;3.11;81.72;101687.53;5113100;28;20127;-77
2022/12/04 08:15:05;;;;;;;106.07;53.13;;;3.10;99.90;;;3.07;82.17;101689.97;5113601;28;20035;-71
2022/12/04 08:17:33;;;;;;;103.97;52.60;;;3.00;99.90;;;2.91;81.98;101679.75;5113336;28;20122;-70
2022/12/04 08:20:01;;;;;;;110.23;53.37;;;3.00;99.90;;;3.14;82.54;101698.09;5113308;28;20050;-70
2022/12/04 08:22:30;;;;;;;107.77;55.20;;;3.10;99.90;;;2.63;82.55;101691.72;5113230;28;20495;-69
2022/12/04 08:24:59;;;;;;;110.70;55.70;;;2.80;99.90;;;2.86;83.35;101699.59;5094908;28;20056;-68
2022/12/04 08:27:28;;;;;;;97.60;51.63;;;2.80;99.90;;;2.72;83.71;101694.72;5113284;28;20485;-68
2022/12/04 08:29:56;;;;;;;108.40;52.77;;;2.70;99.90;;;2.95;83.37;101699.94;5113012;28;20067;-69
2022/12/04 08:32:24;;;;;;;100.67;50.63;;;2.90;99.90;;;2.94;83.23;101691.22;5112944;28;20092;-76
2022/12/04 08:34:53;;;;;;;105.80;52.93;;;2.90;99.90;;;2.83;83.08;101694.25;5113177;28;20035;-72
2022/12/04 08:37:23;;;;;;;108.63;54.17;;;2.90;99.90;;;2.94;83.56;101688.63;5113508;28;20047;-70
2022/12/04 08:39:51;;;;;;;104.17;52.27;;;2.90;99.90;;;2.84;83.53;101701.25;5113357;28;20088;-74
2022/12/04 08:42:21;;;;;;;106.33;51.27;;;2.90;99.90;;;2.82;83.69;101692.44;5112767;28;20043;-70
2022/12/04 08:44:49;;;;;;;105.40;54.63;;;2.80;99.90;;;3.05;83.74;101717.75;5094872;28;20051;-73
2022/12/04 08:47:18;;;;;;;102.53;52.33;;;3.00;99.90;;;3.04;83.13;101700.31;5113610;28;20483;-76
2022/12/04 08:49:46;;;;;;;101.70;50.13;;;3.00;99.90;;;2.91;83.11;101706.78;5116552;28;20119;-74
2022/12/04 08:52:14;;;;;;;99.97;51.73;;;3.00;99.90;;;2.99;83.02;101712.28;5116359;28;20035;-72
2022/12/04 08:54:42;;;;;;;103.43;52.33;;;3.00;99.90;;;3.04;83.17;101700.31;5116399;28;20048;-75
2022/12/04 08:57:11;;;;;;;101.50;51.60;;;3.00;99.90;;;3.15;82.77;101709.47;5116357;28;20032;-71
2022/12/04 08:59:40;;;;;;;102.10;52.37;;;3.10;99.90;;;2.96;82.91;101710.44;5116137;28;20047;-74
2022/12/04 09:02:11;;;;;;;102.68;52.72;;;3.00;99.90;;;2.71;83.20;101721.63;5116189;28;20046;-72
2022/12/04 09:04:40;;;;;;;100.10;50.73;;;2.90;99.90;;;2.94;83.45;101729.53;5116247;28;20105;-73
2022/12/04 09:07:08;;;;;;;98.83;49.67;;;2.90;99.90;;;3.04;83.66;101729.06;5116120;28;20043;-70
2022/12/04 09:09:36;;;;;;;102.23;51.70;;;3.00;99.90;;;3.10;83.29;101730.19;5116107;28;20485;-73
2022/12/04 09:12:05;;;;;;;95.07;49.07;;;3.10;99.90;;;3.19;83.24;101727.94;5116224;28;20401;-70
2022/12/04 09:14:33;;;;;;;100.00;50.70;;;3.20;99.90;;;3.19;82.61;101709.66;5115825;28;20507;-76
2022/12/04 09:17:03;;;;;;;96.37;50.87;;;3.30;99.90;;;3.37;82.25;101722.50;5115973;28;20027;-68
2022/12/04 09:19:31;;;;;;;100.80;51.03;;;3.40;99.90;;;3.27;81.91;101723.88;5116526;28;20047;-69
2022/12/04 09:21:59;;;;;;;98.23;48.27;;;3.40;99.90;;;3.37;82.65;101728.63;5116411;28;20273;-69
2022/12/04 09:24:29;;;;;;;94.80;49.10;;;3.40;99.90;;;3.51;82.37;101721.31;5115501;28;20036;-70
2022/12/04 09:26:58;;;;;;;94.68;50.70;;;3.50;99.90;;;3.56;81.53;101725.00;5115986;28;20472;-70
2022/12/04 09:29:26;;;;;;;100.67;51.33;;;3.60;99.90;;;3.54;81.34;101721.44;5115984;28;20052;-72
2022/12/04 09:31:54;;;;;;;99.90;49.67;;;3.50;99.90;;;3.63;81.41;101721.75;5097962;28;20058;-81
2022/12/04 09:34:24;;;;;;;95.17;48.27;;;3.60;99.90;;;3.64;80.82;101720.91;5115557;28;20043;-68
2022/12/04 09:36:52;;;;;;;89.13;49.93;;;3.60;99.90;;;3.69;80.87;101722.00;5115504;28;20051;-68
2022/12/04 09:39:20;;;;;;;92.93;48.03;;;3.70;99.90;;;3.66;80.68;101714.91;5115741;28;20280;-67
2022/12/04 09:42:20;;;;;;;97.33;49.93;;;3.70;99.90;;;3.33;81.44;101715.41;5115437;28;20489;-67
2022/12/04 09:44:55;;;;;;;93.50;49.13;;;3.50;99.90;;;3.51;81.22;101716.06;5115649;28;20063;-66
2022/12/04 09:47:28;;;;;;;97.13;49.47;;;3.50;99.90;;;3.52;81.51;101713.50;5115449;28;20047;-66
2022/12/04 09:50:02;;;;;;;95.13;49.63;;;3.50;99.90;;;3.61;81.25;101713.88;5115391;28;20118;-66
2022/12/04 09:52:46;;;;;;;92.03;49.40;;;3.60;99.90;;;3.59;80.96;101717.25;5115532;28;20127;-67
2022/12/04 09:55:22;;;;;;;94.30;48.33;;;3.60;99.90;;;3.66;80.93;101711.41;5115807;28;20142;-69
2022/12/04 09:57:53;;;;;;;91.90;47.70;;;3.60;99.90;;;3.60;81.37;101714.69;5115464;28;20055;-69
2022/12/04 10:00:32;;;;;;;101.43;50.70;;;3.60;99.90;;;3.59;81.13;101698.94;5115015;28;20400;-69
2022/12/04 10:03:04;;;;;;;95.73;48.23;;;3.70;99.90;;;3.42;80.97;101700.06;5115115;28;20039;-69
2022/12/04 10:05:48;;;;;;;97.07;49.77;;;3.60;99.90;;;3.66;81.19;101716.63;5115852;28;20500;-68
2022/12/04 10:08:23;;;;;;;88.23;47.43;;;3.60;99.90;;;3.72;81.11;101713.38;5115007;28;20123;-68
2022/12/04 10:11:05;;;;;;;95.27;48.77;;;3.70;99.90;;;3.49;81.01;101715.13;5114960;28;20044;-72
2022/12/04 10:14:11;;;;;;;98.17;49.37;;;3.50;99.90;;;3.72;81.53;101718.63;5114875;28;20096;-71
2022/12/04 10:16:57;;;;;;;97.60;49.17;;;3.60;99.90;;;3.12;81.81;101706.69;5091454;28;20060;-70
2022/12/04 10:19:34;;;;;;;100.47;50.47;;;3.30;99.90;;;3.45;82.10;101719.34;5115079;28;20043;-74
2022/12/04 10:22:15;;;;;;;105.93;52.13;;;3.40;99.90;;;3.45;81.83;101714.13;5096802;28;20071;-74
2022/12/04 10:24:48;;;;;;;97.07;49.67;;;3.40;99.90;;;3.46;81.70;101709.78;5114612;28;20058;-75
2022/12/04 10:27:23;;;;;;;97.67;48.93;;;3.50;99.90;;;3.71;81.92;101716.81;5114691;28;20122;-72
2022/12/04 10:29:59;;;;;;;99.57;49.27;;;3.60;99.90;;;3.53;81.33;101711.78;5114840;28;20473;-73
2022/12/04 10:32:32;;;;;;;91.97;49.33;;;3.60;99.90;;;3.54;81.73;101711.84;5114763;28;20067;-78
2022/12/04 10:35:19;;;;;;;99.70;51.47;;;3.60;99.90;;;3.64;81.18;101706.13;5114430;28;20044;-72
2022/12/04 10:37:55;;;;;;;101.80;51.03;;;3.60;99.90;;;3.70;80.88;101701.97;5114811;28;20499;-78
2022/12/04 10:40:31;;;;;;;104.93;51.77;;;3.70;99.90;;;3.61;81.27;101699.91;5115067;28;20183;-73